createdAt,value
2022-10-16T00:00:55.078Z,43.72
2022-10-16T00:03:25.387Z,42.50
2022-10-16T00:05:54.719Z,42.47
2022-10-16T00:08:21.719Z,41.75
2022-10-16T00:10:48.499Z,40.70
2022-10-16T00:13:15.103Z,40.47
2022-10-16T00:15:44.131Z,41.30
2022-10-16T00:18:11.235Z,39.70
2022-10-16T00:20:38.010Z,41.50
2022-10-16T00:23:06.094Z,43.45
2022-10-16T00:25:37.192Z,41.83
2022-10-16T00:28:03.866Z,40.78
2022-10-16T00:30:30.530Z,42.53
2022-10-16T00:32:57.392Z,41.20
2022-10-16T00:35:24.373Z,41.15
2022-10-16T00:37:50.950Z,42.58
2022-10-16T00:40:17.788Z,40.97
2022-10-16T00:42:44.364Z,41.97
2022-10-16T00:45:11.638Z,43.05
2022-10-16T00:47:41.680Z,42.67
2022-10-16T00:50:31.445Z,42.15
2022-10-16T00:52:59.478Z,43.17
2022-10-16T00:55:26.800Z,42.97
2022-10-16T00:57:53.507Z,42.15
2022-10-16T01:00:24.550Z,44.10
2022-10-16T01:03:00.867Z,42.45
2022-10-16T01:05:40.359Z,42.05
2022-10-16T01:08:16.291Z,41.25
2022-10-16T01:10:55.314Z,41.13
2022-10-16T01:13:31.621Z,41.22
2022-10-16T01:16:28.443Z,41.30
2022-10-16T01:19:24.415Z,40.65
2022-10-16T01:21:54.221Z,39.50
2022-10-16T01:24:34.036Z,41.50
2022-10-16T01:27:17.994Z,41.95
2022-10-16T01:30:14.891Z,41.50
2022-10-16T01:32:43.399Z,40.78
2022-10-16T01:35:15.907Z,41.97
2022-10-16T01:37:51.124Z,41.20
2022-10-16T01:40:20.462Z,41.38
2022-10-16T01:43:18.631Z,40.78
2022-10-16T01:45:46.978Z,41.72
2022-10-16T01:48:17.878Z,40.92
2022-10-16T01:50:50.740Z,42.30
2022-10-16T01:55:49.156Z,39.65
2022-10-16T01:58:16.584Z,40.70
2022-10-16T02:00:46.487Z,41.72
2022-10-16T02:03:17.130Z,44.67
2022-10-16T02:05:46.591Z,43.17
2022-10-16T02:08:14.047Z,42.63
2022-10-16T02:10:40.927Z,42.05
2022-10-16T02:13:09.951Z,42.13
2022-10-16T02:15:37.142Z,41.65
2022-10-16T02:18:06.162Z,41.97
2022-10-16T02:20:40.330Z,39.45
2022-10-16T02:23:12.609Z,40.63
2022-10-16T02:25:44.743Z,39.30
2022-10-16T02:28:19.039Z,40.50
2022-10-16T02:30:59.011Z,40.90
2022-10-16T02:33:27.466Z,41.08
2022-10-16T02:35:55.644Z,41.47
2022-10-16T02:38:23.889Z,42.60
2022-10-16T02:40:50.799Z,42.63
2022-10-16T02:43:17.689Z,44.10
2022-10-16T02:45:44.655Z,45.58
2022-10-16T02:48:11.382Z,47.38
2022-10-16T02:50:37.970Z,45.53
2022-10-16T02:53:04.621Z,46.58
2022-10-16T02:55:31.447Z,47.00
2022-10-16T02:57:58.035Z,46.17
2022-10-16T03:00:25.110Z,46.45
2022-10-16T03:02:51.711Z,46.55
2022-10-16T03:05:18.809Z,46.55
2022-10-16T03:07:45.502Z,47.70
2022-10-16T03:10:12.130Z,48.88
2022-10-16T03:12:38.715Z,46.35
2022-10-16T03:15:05.669Z,46.95
2022-10-16T03:17:33.402Z,44.20
2022-10-16T03:20:00.140Z,49.55
2022-10-16T03:22:26.818Z,48.10
2022-10-16T03:24:53.694Z,47.58
2022-10-16T03:27:20.344Z,46.03
2022-10-16T03:29:46.953Z,44.38
2022-10-16T03:32:13.579Z,44.55
2022-10-16T03:34:40.229Z,45.75
2022-10-16T03:37:07.074Z,44.45
2022-10-16T03:39:33.809Z,45.88
2022-10-16T03:42:00.689Z,46.90
2022-10-16T03:44:27.496Z,45.30
2022-10-16T03:46:54.075Z,46.15
2022-10-16T03:49:20.653Z,48.42
2022-10-16T03:51:47.320Z,47.83
2022-10-16T03:54:13.904Z,46.53
2022-10-16T03:56:40.611Z,46.60
2022-10-16T03:59:07.249Z,45.92
2022-10-16T04:01:33.927Z,44.55
2022-10-16T04:04:00.599Z,47.75
2022-10-16T04:06:27.313Z,45.25
2022-10-16T04:08:53.975Z,47.92
2022-10-16T04:11:20.600Z,46.97
2022-10-16T04:13:47.239Z,48.08
2022-10-16T04:16:13.822Z,49.53
2022-10-16T04:18:43.170Z,47.95
2022-10-16T04:21:09.799Z,47.13
2022-10-16T04:23:36.466Z,47.75
2022-10-16T04:26:03.835Z,47.90
2022-10-16T04:28:30.877Z,47.53
2022-10-16T04:30:57.555Z,45.40
2022-10-16T04:33:24.227Z,44.38
2022-10-16T04:35:57.774Z,43.83
2022-10-16T04:38:26.660Z,49.45
2022-10-16T04:40:53.730Z,45.90
2022-10-16T04:43:21.275Z,45.17
2022-10-16T04:45:47.967Z,46.40
2022-10-16T04:48:14.659Z,46.65
2022-10-16T04:50:42.190Z,48.60
2022-10-16T04:53:08.791Z,45.13
2022-10-16T04:55:35.796Z,48.15
2022-10-16T04:58:02.447Z,44.83
2022-10-16T05:00:29.166Z,48.10
2022-10-16T05:02:56.006Z,45.35
2022-10-16T05:05:22.726Z,44.50
2022-10-16T05:07:50.599Z,43.28
2022-10-16T05:10:17.736Z,45.17
2022-10-16T05:12:44.367Z,46.25
2022-10-16T05:15:11.371Z,47.05
2022-10-16T05:17:42.386Z,47.35
2022-10-16T05:20:12.123Z,47.05
2022-10-16T05:22:38.850Z,47.75
2022-10-16T05:25:05.818Z,46.70
2022-10-16T05:27:32.402Z,42.72
2022-10-16T05:29:59.024Z,43.50
2022-10-16T05:32:25.690Z,42.38
2022-10-16T05:34:52.546Z,43.15
2022-10-16T05:37:19.287Z,42.90
2022-10-16T05:39:45.910Z,41.05
2022-10-16T05:42:12.562Z,42.47
2022-10-16T05:44:39.184Z,40.58
2022-10-16T05:47:05.994Z,37.72
2022-10-16T05:49:32.597Z,37.60
2022-10-16T05:51:59.275Z,37.10
2022-10-16T05:54:25.917Z,40.72
2022-10-16T05:56:52.531Z,42.00
2022-10-16T05:59:19.212Z,45.80
2022-10-16T06:01:45.854Z,42.55
2022-10-16T06:04:12.481Z,40.83
2022-10-16T06:06:39.201Z,38.60
2022-10-16T06:09:05.834Z,40.92
2022-10-16T06:11:34.014Z,40.88
2022-10-16T06:14:03.684Z,39.47
2022-10-16T06:16:30.629Z,40.63
2022-10-16T06:18:57.527Z,38.67
2022-10-16T06:21:25.961Z,40.38
2022-10-16T06:23:53.507Z,39.25
2022-10-16T06:26:22.605Z,39.25
2022-10-16T06:28:50.113Z,40.83
2022-10-16T06:31:17.595Z,38.60
2022-10-16T06:33:46.567Z,42.97
2022-10-16T06:36:15.926Z,40.72
2022-10-16T06:38:43.387Z,42.75
2022-10-16T06:41:13.312Z,40.50
2022-10-16T06:43:39.885Z,40.05
2022-10-16T06:46:08.930Z,39.97
2022-10-16T06:48:35.758Z,35.95
2022-10-16T06:51:06.993Z,38.78
2022-10-16T06:53:39.980Z,38.85
2022-10-16T06:56:19.886Z,42.90
2022-10-16T06:58:48.021Z,39.67
2022-10-16T07:01:16.362Z,38.38
2022-10-16T07:03:44.853Z,38.63
2022-10-16T07:06:14.822Z,37.30
2022-10-16T07:08:43.511Z,39.30
2022-10-16T07:11:12.235Z,38.45
2022-10-16T07:13:41.028Z,35.90
2022-10-16T07:16:11.878Z,37.33
2022-10-16T07:18:41.232Z,37.97
2022-10-16T07:21:10.587Z,36.38
2022-10-16T07:23:37.577Z,37.30
2022-10-16T07:26:05.504Z,39.28
2022-10-16T07:28:33.130Z,35.42
2022-10-16T07:31:16.678Z,34.40
2022-10-16T07:33:45.750Z,35.03
2022-10-16T07:36:17.288Z,34.47
2022-10-16T07:38:46.157Z,33.83
2022-10-16T07:41:15.941Z,36.95
2022-10-16T07:43:50.309Z,34.83
2022-10-16T07:46:17.795Z,32.78
2022-10-16T07:48:47.940Z,33.60
2022-10-16T07:51:16.988Z,33.25
2022-10-16T07:53:43.703Z,34.67
2022-10-16T07:56:10.585Z,33.05
2022-10-16T07:58:40.250Z,32.60
2022-10-16T08:01:17.279Z,32.45
2022-10-16T08:03:48.710Z,30.42
2022-10-16T08:06:15.842Z,28.92
2022-10-16T08:08:42.634Z,31.10
2022-10-16T08:11:09.821Z,28.75
2022-10-16T08:13:37.145Z,30.38
2022-10-16T08:16:08.761Z,31.55
2022-10-16T08:18:36.846Z,29.57
2022-10-16T08:21:05.541Z,27.75
2022-10-16T08:23:33.240Z,28.45
2022-10-16T08:26:05.605Z,28.55
2022-10-16T08:28:32.953Z,27.08
2022-10-16T08:31:11.818Z,26.88
2022-10-16T08:33:39.749Z,24.90
2022-10-16T08:36:07.450Z,27.00
2022-10-16T08:38:35.197Z,24.52
2022-10-16T08:41:13.707Z,24.75
2022-10-16T08:44:05.043Z,23.23
2022-10-16T08:46:57.701Z,23.10
2022-10-16T08:51:52.542Z,22.58
2022-10-16T08:54:41.503Z,21.90
2022-10-16T08:57:19.736Z,22.02
2022-10-16T08:59:50.180Z,21.70
2022-10-16T09:02:36.000Z,22.30
2022-10-16T09:05:38.085Z,21.27
2022-10-16T09:08:20.453Z,20.23
2022-10-16T09:10:58.065Z,20.77
2022-10-16T09:13:29.766Z,19.17
2022-10-16T09:16:24.178Z,19.83
2022-10-16T09:19:05.880Z,20.17
2022-10-16T09:21:45.459Z,19.85
2022-10-16T09:24:23.381Z,19.10
2022-10-16T09:26:52.179Z,18.08
2022-10-16T09:29:26.305Z,18.60
2022-10-16T09:31:55.875Z,18.77
2022-10-16T09:34:32.037Z,18.83
2022-10-16T09:37:05.404Z,18.38
2022-10-16T09:39:32.021Z,18.25
2022-10-16T09:41:58.701Z,17.92
2022-10-16T09:44:29.381Z,17.00
2022-10-16T09:47:23.740Z,17.30
2022-10-16T09:50:03.119Z,16.63
2022-10-16T09:52:30.856Z,18.35
2022-10-16T09:55:00.184Z,16.77
2022-10-16T09:57:27.871Z,16.85
2022-10-16T09:59:57.062Z,16.83
2022-10-16T10:02:31.873Z,17.10
2022-10-16T10:04:58.696Z,15.93
2022-10-16T10:07:35.471Z,15.80
2022-10-16T10:10:05.990Z,15.95
2022-10-16T10:12:35.780Z,15.35
2022-10-16T10:15:22.511Z,16.35
2022-10-16T10:17:57.030Z,16.08
2022-10-16T10:20:28.836Z,15.63
2022-10-16T10:22:56.788Z,15.77
2022-10-16T10:26:00.569Z,14.48
2022-10-16T10:28:39.124Z,15.73
2022-10-16T10:31:14.841Z,15.25
2022-10-16T10:33:51.129Z,14.75
2022-10-16T10:36:30.117Z,15.20
2022-10-16T10:39:18.613Z,15.23
2022-10-16T10:42:05.645Z,13.93
2022-10-16T10:44:44.582Z,13.77
2022-10-16T10:47:38.780Z,13.60
2022-10-16T10:50:17.978Z,12.85
2022-10-16T10:52:59.188Z,12.35
2022-10-16T10:55:39.956Z,12.35
2022-10-16T10:58:48.686Z,11.50
2022-10-16T11:01:19.208Z,12.07
2022-10-16T11:04:07.130Z,11.63
2022-10-16T11:06:37.707Z,11.98
2022-10-16T11:09:27.520Z,12.13
2022-10-16T11:12:17.082Z,11.18
2022-10-16T11:15:05.629Z,12.10
2022-10-16T11:17:40.927Z,12.80
2022-10-16T11:20:19.985Z,12.68
2022-10-16T11:23:01.387Z,11.77
2022-10-16T11:25:31.143Z,12.68
2022-10-16T11:28:12.810Z,12.18
2022-10-16T11:31:11.476Z,12.93
2022-10-16T11:33:44.440Z,12.07
2022-10-16T11:36:38.682Z,12.30
2022-10-16T11:39:20.415Z,13.00
2022-10-16T11:41:52.730Z,12.15
2022-10-16T11:44:28.438Z,13.07
2022-10-16T11:47:53.996Z,12.68
2022-10-16T11:50:30.568Z,13.43
2022-10-16T11:53:20.298Z,12.18
2022-10-16T11:55:47.546Z,12.43
2022-10-16T11:58:44.329Z,13.70
2022-10-16T12:01:11.251Z,12.13
2022-10-16T12:03:50.683Z,12.82
2022-10-16T12:06:27.370Z,11.70
2022-10-16T12:08:55.778Z,12.55
2022-10-16T12:11:38.143Z,11.98
2022-10-16T12:14:13.497Z,12.60
2022-10-16T12:16:59.247Z,12.57
2022-10-16T12:19:27.692Z,11.90
2022-10-16T12:21:58.167Z,12.02
2022-10-16T12:24:33.947Z,11.75
2022-10-16T12:27:01.485Z,11.02
2022-10-16T12:29:38.035Z,11.43
2022-10-16T12:32:48.278Z,11.27
2022-10-16T12:35:28.399Z,10.55
2022-10-16T12:37:55.679Z,10.50
2022-10-16T12:40:30.796Z,10.30
2022-10-16T12:42:57.907Z,10.88
2022-10-16T12:45:33.319Z,10.52
2022-10-16T12:48:19.048Z,9.95
2022-10-16T12:50:45.764Z,10.18
2022-10-16T12:53:23.960Z,10.95
2022-10-16T12:56:15.415Z,11.45
2022-10-16T12:59:06.523Z,10.90
2022-10-16T13:01:55.649Z,11.18
2022-10-16T13:04:48.863Z,10.77
2022-10-16T13:07:26.156Z,11.70
2022-10-16T13:09:58.979Z,11.07
2022-10-16T13:12:39.337Z,12.00
2022-10-16T13:15:38.330Z,11.20
2022-10-16T13:18:26.396Z,11.75
2022-10-16T13:21:28.113Z,11.82
2022-10-16T13:24:03.555Z,11.65
2022-10-16T13:26:36.647Z,13.00
2022-10-16T13:29:03.511Z,12.18
2022-10-16T13:31:32.182Z,11.90
2022-10-16T13:34:01.317Z,11.82
2022-10-16T13:36:43.206Z,12.55
2022-10-16T13:39:23.195Z,11.07
2022-10-16T13:42:09.137Z,11.45
2022-10-16T13:44:42.149Z,11.52
2022-10-16T13:47:26.321Z,11.70
2022-10-16T13:50:03.394Z,12.23
2022-10-16T13:52:30.629Z,11.95
2022-10-16T13:55:00.955Z,11.43
2022-10-16T13:57:29.021Z,11.52
2022-10-16T13:59:56.025Z,11.90
2022-10-16T14:02:42.943Z,11.60
2022-10-16T14:05:11.681Z,12.00
2022-10-16T14:07:39.192Z,12.00
2022-10-16T14:10:19.789Z,11.52
2022-10-16T14:12:46.743Z,11.88
2022-10-16T14:15:20.171Z,12.70
2022-10-16T14:17:51.306Z,11.52
2022-10-16T14:20:27.962Z,11.88
2022-10-16T14:23:05.359Z,11.85
2022-10-16T14:25:33.517Z,12.57
2022-10-16T14:28:20.751Z,11.48
2022-10-16T14:31:01.091Z,10.88
2022-10-16T14:33:30.860Z,11.30
2022-10-16T14:36:03.482Z,11.55
2022-10-16T14:38:30.658Z,11.38
2022-10-16T14:40:59.806Z,11.32
2022-10-16T14:43:48.628Z,12.50
2022-10-16T14:49:01.256Z,12.50
2022-10-16T14:51:28.361Z,12.18
2022-10-16T14:53:59.204Z,15.88
2022-10-16T14:58:59.001Z,15.15
2022-10-16T15:01:25.714Z,16.10
2022-10-16T15:03:53.658Z,15.48
2022-10-16T15:06:20.394Z,16.52
2022-10-16T15:08:47.107Z,17.02
2022-10-16T15:11:16.539Z,16.85
2022-10-16T15:13:43.306Z,18.20
2022-10-16T15:16:16.136Z,17.67
2022-10-16T15:18:43.634Z,18.17
2022-10-16T15:21:28.264Z,17.75
2022-10-16T15:23:55.451Z,16.98
2022-10-16T15:26:22.043Z,18.60
2022-10-16T15:28:48.758Z,18.77
2022-10-16T15:31:15.470Z,20.63
2022-10-16T15:33:42.224Z,20.60
2022-10-16T15:36:09.125Z,23.55
2022-10-16T15:38:36.259Z,21.40
2022-10-16T15:41:03.644Z,20.85
2022-10-16T15:43:30.291Z,19.73
2022-10-16T15:46:03.167Z,19.20
2022-10-16T15:48:31.362Z,18.20
2022-10-16T15:50:58.636Z,19.73
2022-10-16T15:53:25.386Z,19.95
2022-10-16T15:55:52.109Z,19.33
2022-10-16T15:58:18.840Z,20.05
2022-10-16T16:00:46.082Z,21.02
2022-10-16T16:03:12.738Z,20.73
2022-10-16T16:05:45.608Z,20.75
2022-10-16T16:08:13.151Z,23.05
2022-10-16T16:10:40.015Z,23.20
2022-10-16T16:13:06.724Z,23.98
2022-10-16T16:15:33.830Z,24.15
2022-10-16T16:20:36.422Z,22.98
2022-10-16T16:23:03.042Z,23.67
2022-10-16T16:25:29.640Z,23.80
2022-10-16T16:27:56.326Z,24.33
2022-10-16T16:30:27.313Z,23.30
2022-10-16T16:32:54.779Z,24.25
2022-10-16T16:35:21.375Z,25.20
2022-10-16T16:37:49.108Z,24.23
2022-10-16T16:40:15.910Z,23.70
2022-10-16T16:42:42.517Z,23.92
2022-10-16T16:45:09.846Z,24.85
2022-10-16T16:47:36.646Z,26.95
2022-10-16T16:50:05.850Z,26.23
2022-10-16T16:52:32.585Z,26.42
2022-10-16T16:54:59.550Z,27.45
2022-10-16T16:57:26.659Z,25.50
2022-10-16T16:59:53.539Z,26.40
2022-10-16T17:02:20.320Z,26.08
2022-10-16T17:04:47.002Z,26.88
2022-10-16T17:07:18.435Z,26.20
2022-10-16T17:09:46.221Z,25.40
2022-10-16T17:12:12.831Z,24.75
2022-10-16T17:14:39.448Z,26.05
2022-10-16T17:17:07.900Z,24.77
2022-10-16T17:19:35.423Z,24.88
2022-10-16T17:24:31.888Z,23.88
2022-10-16T17:26:58.579Z,25.48
2022-10-16T17:29:25.187Z,24.85
2022-10-16T17:31:51.831Z,24.13
2022-10-16T17:34:18.679Z,25.80
2022-10-16T17:36:47.009Z,24.58
2022-10-16T17:39:17.595Z,23.35
2022-10-16T17:41:45.419Z,23.77
2022-10-16T17:44:19.609Z,24.33
2022-10-16T17:46:48.708Z,23.88
2022-10-16T17:49:15.516Z,24.90
2022-10-16T17:51:42.497Z,25.00
2022-10-16T17:54:14.621Z,23.83
2022-10-16T17:56:41.795Z,24.77
2022-10-16T17:59:08.439Z,24.42
2022-10-16T18:01:38.215Z,25.17
2022-10-16T18:04:09.409Z,25.73
2022-10-16T18:06:36.922Z,24.73
2022-10-16T18:09:04.853Z,24.02
2022-10-16T18:11:31.927Z,23.70
2022-10-16T18:13:59.657Z,24.27
2022-10-16T18:16:28.037Z,25.25
2022-10-16T18:18:57.060Z,25.02
2022-10-16T18:21:27.357Z,25.38
2022-10-16T18:23:54.420Z,25.35
2022-10-16T18:26:22.209Z,23.52
2022-10-16T18:28:53.136Z,25.85
2022-10-16T18:31:20.963Z,24.38
2022-10-16T18:33:51.360Z,25.73
2022-10-16T18:36:24.115Z,25.73
2022-10-16T18:38:51.243Z,24.40
2022-10-16T18:41:18.595Z,25.77
2022-10-16T18:43:45.239Z,26.85
2022-10-16T18:46:14.390Z,26.48
2022-10-16T18:48:41.479Z,28.00
2022-10-16T18:51:16.860Z,25.60
2022-10-16T18:53:45.673Z,25.40
2022-10-16T18:56:15.019Z,24.73
2022-10-16T18:58:43.337Z,26.40
2022-10-16T19:01:16.711Z,26.20
2022-10-16T19:03:44.023Z,27.23
2022-10-16T19:06:13.809Z,26.20
2022-10-16T19:08:41.492Z,26.50
2022-10-16T19:11:11.363Z,26.65
2022-10-16T19:13:38.405Z,26.05
2022-10-16T19:16:19.773Z,27.27
2022-10-16T19:18:49.198Z,26.95
2022-10-16T19:21:16.921Z,26.50
2022-10-16T19:23:43.896Z,26.17
2022-10-16T19:26:14.142Z,27.60
2022-10-16T19:28:41.176Z,26.02
2022-10-16T19:31:13.712Z,27.75
2022-10-16T19:33:40.908Z,26.83
2022-10-16T19:36:09.642Z,28.08
2022-10-16T19:38:36.232Z,27.42
2022-10-16T19:41:10.966Z,30.73
2022-10-16T19:43:38.112Z,28.20
2022-10-16T19:46:07.201Z,27.88
2022-10-16T19:48:34.454Z,28.33
2022-10-16T19:51:01.349Z,28.60
2022-10-16T19:53:28.584Z,28.63
2022-10-16T19:55:56.405Z,27.90
2022-10-16T19:58:24.137Z,28.38
2022-10-16T20:00:50.891Z,28.38
2022-10-16T20:03:18.151Z,27.90
2022-10-16T20:05:55.582Z,28.42
2022-10-16T20:08:23.634Z,27.58
2022-10-16T20:10:54.874Z,27.17
2022-10-16T20:13:22.563Z,29.42
2022-10-16T20:15:49.589Z,27.95
2022-10-16T20:18:16.821Z,28.23
2022-10-16T20:20:45.938Z,27.85
2022-10-16T20:23:12.721Z,28.55
2022-10-16T20:25:41.625Z,27.85
2022-10-16T20:28:11.104Z,26.40
2022-10-16T20:30:40.441Z,27.58
2022-10-16T20:33:08.478Z,26.80
2022-10-16T20:35:36.664Z,27.27
2022-10-16T20:38:04.037Z,27.42
2022-10-16T20:40:31.366Z,27.80
2022-10-16T20:42:58.093Z,26.13
2022-10-16T20:45:24.688Z,26.40
2022-10-16T20:47:51.337Z,26.95
2022-10-16T20:50:18.034Z,26.10
2022-10-16T20:52:44.676Z,26.58
2022-10-16T20:55:11.354Z,27.00
2022-10-16T20:57:38.008Z,26.77
2022-10-16T21:00:06.147Z,26.63
2022-10-16T21:02:32.812Z,25.27
2022-10-16T21:04:59.423Z,26.05
2022-10-16T21:07:28.078Z,25.30
2022-10-16T21:09:56.745Z,26.48
2022-10-16T21:12:24.747Z,25.60
2022-10-16T21:15:13.373Z,26.65
2022-10-16T21:17:38.882Z,25.30
2022-10-16T21:20:06.139Z,26.42
2022-10-16T21:22:32.799Z,27.10
2022-10-16T21:24:59.422Z,27.25
2022-10-16T21:27:26.022Z,26.60
2022-10-16T21:29:54.249Z,26.83
2022-10-16T21:32:21.442Z,26.95
2022-10-16T21:34:48.297Z,25.50
2022-10-16T21:37:14.995Z,26.75
2022-10-16T21:39:41.688Z,28.17
2022-10-16T21:42:08.467Z,27.98
2022-10-16T21:44:35.191Z,26.20
2022-10-16T21:47:01.812Z,25.98
2022-10-16T21:49:28.510Z,27.50
2022-10-16T21:51:55.251Z,27.65
2022-10-16T21:54:23.991Z,25.70
2022-10-16T21:56:51.008Z,25.92
2022-10-16T21:59:18.209Z,26.00
2022-10-16T22:01:44.981Z,25.17
2022-10-16T22:04:13.369Z,26.92
2022-10-16T22:06:40.299Z,26.05
2022-10-16T22:09:09.565Z,25.80
2022-10-16T22:11:38.112Z,26.92
2022-10-16T22:14:11.302Z,24.88
2022-10-16T22:16:39.150Z,25.52
2022-10-16T22:19:09.555Z,25.80
2022-10-16T22:21:38.475Z,26.20
2022-10-16T22:24:06.177Z,26.02
2022-10-16T22:26:33.504Z,24.05
2022-10-16T22:29:00.255Z,26.35
2022-10-16T22:31:26.938Z,26.45
2022-10-16T22:33:57.887Z,26.70
2022-10-16T22:36:25.031Z,25.70
2022-10-16T22:38:51.668Z,24.65
2022-10-16T22:41:18.336Z,25.38
2022-10-16T22:43:48.063Z,25.17
2022-10-16T22:46:20.435Z,25.27
2022-10-16T22:48:47.171Z,24.80
2022-10-16T22:51:16.761Z,23.67
2022-10-16T22:53:45.358Z,25.52
2022-10-16T22:56:13.211Z,23.77
2022-10-16T22:58:39.806Z,25.20
2022-10-16T23:01:15.496Z,24.52
2022-10-16T23:03:42.134Z,22.90
2022-10-16T23:06:08.936Z,24.73
2022-10-16T23:08:35.595Z,22.23
2022-10-16T23:11:06.741Z,23.98
2022-10-16T23:13:36.209Z,23.77
2022-10-16T23:16:04.319Z,23.50
2022-10-16T23:18:31.579Z,23.60
2022-10-16T23:20:58.151Z,23.25
2022-10-16T23:23:24.804Z,23.33
2022-10-16T23:25:51.379Z,24.60
2022-10-16T23:28:18.002Z,25.52
2022-10-16T23:30:44.586Z,24.48
2022-10-16T23:33:11.251Z,25.23
2022-10-16T23:35:40.654Z,26.80
2022-10-16T23:38:07.424Z,24.48
2022-10-16T23:40:34.100Z,27.17
2022-10-16T23:43:02.916Z,27.65
2022-10-16T23:45:29.604Z,26.58
2022-10-16T23:47:56.242Z,28.30
2022-10-16T23:50:22.900Z,26.38
2022-10-16T23:52:49.474Z,26.63
2022-10-16T23:55:16.192Z,26.80
2022-10-16T23:57:45.255Z,25.33
